sensor_id;sensor_type;location;lat;lon;timestamp;pressure;altitude;pressure_sealevel;temperature;humidity
9281;BME280;4679;47.966;7.958;2023-07-31T06:02:16;97215.88;;;14.95;76.81
9281;BME280;4679;47.966;7.958;2023-07-31T06:04:18;97210.22;;;15.02;76.53
9281;BME280;4679;47.966;7.958;2023-07-31T06:06:20;97202.47;;;15.10;76.46
9281;BME280;4679;47.966;7.958;2023-07-31T06:08:21;97203.78;;;15.18;76.47
9281;BME280;4679;47.966;7.958;2023-07-31T06:10:23;97201.91;;;15.24;76.19
9281;BME280;4679;47.966;7.958;2023-07-31T06:12:24;97188.00;;;15.27;75.86
9281;BME280;4679;47.966;7.958;2023-07-31T06:14:25;97197.59;;;15.28;75.97
9281;BME280;4679;47.966;7.958;2023-07-31T06:16:27;97197.59;;;15.33;76.00
9281;BME280;4679;47.966;7.958;2023-07-31T06:18:30;97194.13;;;15.37;76.16
9281;BME280;4679;47.966;7.958;2023-07-31T06:20:32;97183.09;;;15.49;75.65
9281;BME280;4679;47.966;7.958;2023-07-31T06:22:34;97194.31;;;15.61;75.50
9281;BME280;4679;47.966;7.958;2023-07-31T06:24:35;97180.66;;;15.68;75.65
9281;BME280;4679;47.966;7.958;2023-07-31T06:26:37;97175.31;;;15.73;75.87
9281;BME280;4679;47.966;7.958;2023-07-31T06:28:39;97172.84;;;15.76;75.44
9281;BME280;4679;47.966;7.958;2023-07-31T06:30:41;97177.66;;;15.79;75.06
9281;BME280;4679;47.966;7.958;2023-07-31T06:32:43;97180.59;;;15.83;75.44
9281;BME280;4679;47.966;7.958;2023-07-31T06:34:46;97187.53;;;15.84;75.55
9281;BME280;4679;47.966;7.958;2023-07-31T06:36:47;97178.41;;;15.90;75.54
9281;BME280;4679;47.966;7.958;2023-07-31T06:38:49;97167.94;;;15.99;75.11
9281;BME280;4679;47.966;7.958;2023-07-31T06:40:51;97171.34;;;16.09;75.14
9281;BME280;4679;47.966;7.958;2023-07-31T06:42:52;97170.25;;;16.15;75.12
9281;BME280;4679;47.966;7.958;2023-07-31T06:44:54;97174.19;;;16.23;74.62
9281;BME280;4679;47.966;7.958;2023-07-31T06:46:56;97179.19;;;16.35;74.80
9281;BME280;4679;47.966;7.958;2023-07-31T06:48:57;97179.41;;;16.43;74.30
9281;BME280;4679;47.966;7.958;2023-07-31T06:51:00;97171.84;;;16.50;74.14
9281;BME280;4679;47.966;7.958;2023-07-31T06:53:02;97184.94;;;16.57;74.54
9281;BME280;4679;47.966;7.958;2023-07-31T06:55:16;97187.03;;;16.65;74.01
9281;BME280;4679;47.966;7.958;2023-07-31T06:57:18;97195.56;;;16.72;74.16
9281;BME280;4679;47.966;7.958;2023-07-31T06:59:21;97202.94;;;16.85;73.82
9281;BME280;4679;47.966;7.958;2023-07-31T07:01:22;97198.59;;;16.95;73.57
9281;BME280;4679;47.966;7.958;2023-07-31T07:03:24;97196.88;;;17.04;72.98
9281;BME280;4679;47.966;7.958;2023-07-31T07:05:26;97202.16;;;17.14;73.19
9281;BME280;4679;47.966;7.958;2023-07-31T07:07:29;97199.38;;;17.24;72.89
9281;BME280;4679;47.966;7.958;2023-07-31T07:09:29;97197.38;;;17.35;72.38
9281;BME280;4679;47.966;7.958;2023-07-31T07:11:31;97205.59;;;17.43;72.05
9281;BME280;4679;47.966;7.958;2023-07-31T07:13:33;97199.38;;;17.48;71.72
9281;BME280;4679;47.966;7.958;2023-07-31T07:15:34;97197.44;;;17.53;71.92
9281;BME280;4679;47.966;7.958;2023-07-31T07:17:36;97192.09;;;17.53;71.64
9281;BME280;4679;47.966;7.958;2023-07-31T07:19:40;97190.91;;;17.59;71.60
9281;BME280;4679;47.966;7.958;2023-07-31T07:21:42;97186.88;;;17.62;71.39
9281;BME280;4679;47.966;7.958;2023-07-31T07:23:45;97185.47;;;17.70;71.27
9281;BME280;4679;47.966;7.958;2023-07-31T07:25:47;97184.25;;;17.81;70.52
9281;BME280;4679;47.966;7.958;2023-07-31T07:27:48;97174.69;;;17.93;70.48
9281;BME280;4679;47.966;7.958;2023-07-31T07:29:50;97175.16;;;18.01;70.00
9281;BME280;4679;47.966;7.958;2023-07-31T07:31:51;97169.84;;;18.14;69.58
9281;BME280;4679;47.966;7.958;2023-07-31T07:33:53;97174.78;;;18.26;69.07
9281;BME280;4679;47.966;7.958;2023-07-31T07:35:54;97167.44;;;18.32;68.81
9281;BME280;4679;47.966;7.958;2023-07-31T07:37:56;97178.84;;;18.42;68.68
9281;BME280;4679;47.966;7.958;2023-07-31T07:39:59;97166.53;;;18.55;68.45
9281;BME280;4679;47.966;7.958;2023-07-31T07:42:01;97164.22;;;18.67;67.92
9281;BME280;4679;47.966;7.958;2023-07-31T07:44:03;97161.09;;;18.79;67.41
9281;BME280;4679;47.966;7.958;2023-07-31T07:46:04;97163.28;;;18.90;67.21
9281;BME280;4679;47.966;7.958;2023-07-31T07:48:06;97156.34;;;19.03;66.73
9281;BME280;4679;47.966;7.958;2023-07-31T07:50:08;97155.94;;;19.10;66.36
9281;BME280;4679;47.966;7.958;2023-07-31T07:52:10;97153.66;;;19.30;65.93
9281;BME280;4679;47.966;7.958;2023-07-31T07:54:11;97148.72;;;19.51;65.50
9281;BME280;4679;47.966;7.958;2023-07-31T07:56:15;97151.78;;;19.58;65.13
9281;BME280;4679;47.966;7.958;2023-07-31T07:58:16;97155.78;;;19.75;64.44
9281;BME280;4679;47.966;7.958;2023-07-31T08:00:18;97160.84;;;19.90;63.98
9281;BME280;4679;47.966;7.958;2023-07-31T08:02:19;97169.09;;;20.07;63.68
9281;BME280;4679;47.966;7.958;2023-07-31T08:04:21;97166.28;;;20.12;63.21
9281;BME280;4679;47.966;7.958;2023-07-31T08:06:23;97169.09;;;20.07;63.47
9281;BME280;4679;47.966;7.958;2023-07-31T08:08:24;97167.38;;;20.11;62.83
9281;BME280;4679;47.966;7.958;2023-07-31T08:10:26;97160.41;;;20.10;62.94
9281;BME280;4679;47.966;7.958;2023-07-31T08:12:29;97172.97;;;20.15;62.48
9281;BME280;4679;47.966;7.958;2023-07-31T08:14:31;97171.34;;;20.27;62.19
9281;BME280;4679;47.966;7.958;2023-07-31T08:16:32;97160.53;;;20.41;61.87
9281;BME280;4679;47.966;7.958;2023-07-31T08:18:34;97165.00;;;20.46;61.41
9281;BME280;4679;47.966;7.958;2023-07-31T08:20:36;97163.91;;;20.47;61.27
9281;BME280;4679;47.966;7.958;2023-07-31T08:22:37;97157.84;;;20.41;61.16
9281;BME280;4679;47.966;7.958;2023-07-31T08:24:39;97148.59;;;20.56;61.05
9281;BME280;4679;47.966;7.958;2023-07-31T08:26:41;97153.88;;;20.61;60.95
9281;BME280;4679;47.966;7.958;2023-07-31T08:28:44;97149.84;;;20.81;60.52
9281;BME280;4679;47.966;7.958;2023-07-31T08:30:45;97151.13;;;21.14;59.75
9281;BME280;4679;47.966;7.958;2023-07-31T08:32:47;97149.03;;;21.33;59.57
9281;BME280;4679;47.966;7.958;2023-07-31T08:34:49;97144.81;;;21.50;59.15
9281;BME280;4679;47.966;7.958;2023-07-31T08:36:50;97144.25;;;21.30;59.68
9281;BME280;4679;47.966;7.958;2023-07-31T08:38:51;97157.09;;;21.25;59.31
9281;BME280;4679;47.966;7.958;2023-07-31T08:40:53;97157.47;;;21.40;59.47
9281;BME280;4679;47.966;7.958;2023-07-31T08:42:55;97152.59;;;21.51;59.10
9281;BME280;4679;47.966;7.958;2023-07-31T08:45:04;97157.56;;;21.75;58.78
9281;BME280;4679;47.966;7.958;2023-07-31T08:47:06;97157.44;;;21.80;58.17
9281;BME280;4679;47.966;7.958;2023-07-31T08:49:09;97148.66;;;21.74;58.30
9281;BME280;4679;47.966;7.958;2023-07-31T08:51:13;97147.06;;;21.73;58.36
9281;BME280;4679;47.966;7.958;2023-07-31T08:53:15;97145.22;;;21.83;58.03
9281;BME280;4679;47.966;7.958;2023-07-31T08:55:18;97146.81;;;22.01;57.59
9281;BME280;4679;47.966;7.958;2023-07-31T08:57:23;97149.06;;;21.99;57.60
9281;BME280;4679;47.966;7.958;2023-07-31T08:59:26;97140.59;;;21.92;57.52
9281;BME280;4679;47.966;7.958;2023-07-31T09:01:38;97149.81;;;21.91;57.57
9281;BME280;4679;47.966;7.958;2023-07-31T09:03:41;97139.31;;;21.81;57.61
9281;BME280;4679;47.966;7.958;2023-07-31T09:05:46;97140.44;;;21.88;57.45
9281;BME280;4679;47.966;7.958;2023-07-31T09:07:49;97141.63;;;22.13;56.71
9281;BME280;4679;47.966;7.958;2023-07-31T09:09:51;97137.78;;;22.23;56.88
9281;BME280;4679;47.966;7.958;2023-07-31T09:11:53;97140.81;;;22.13;56.83
9281;BME280;4679;47.966;7.958;2023-07-31T09:13:57;97140.97;;;22.33;56.40
9281;BME280;4679;47.966;7.958;2023-07-31T09:15:59;97141.47;;;22.27;56.44
9281;BME280;4679;47.966;7.958;2023-07-31T09:18:03;97142.09;;;22.24;56.20
9281;BME280;4679;47.966;7.958;2023-07-31T09:20:13;97124.72;;;21.99;56.48
9281;BME280;4679;47.966;7.958;2023-07-31T09:22:16;97117.41;;;21.82;56.57
9281;BME280;4679;47.966;7.958;2023-07-31T09:24:25;97112.78;;;21.83;56.47
9281;BME280;4679;47.966;7.958;2023-07-31T09:26:31;97106.00;;;22.11;55.94
9281;BME280;4679;47.966;7.958;2023-07-31T09:28:33;97094.16;;;21.72;56.55
9281;BME280;4679;47.966;7.958;2023-07-31T09:30:45;97100.97;;;21.53;56.41
9281;BME280;4679;47.966;7.958;2023-07-31T09:32:49;97102.72;;;21.57;56.28
9281;BME280;4679;47.966;7.958;2023-07-31T09:34:52;97094.00;;;21.86;55.61
9281;BME280;4679;47.966;7.958;2023-07-31T09:36:54;97097.09;;;22.28;54.65
9281;BME280;4679;47.966;7.958;2023-07-31T09:39:01;97091.19;;;22.43;54.60
9281;BME280;4679;47.966;7.958;2023-07-31T09:41:05;97069.56;;;22.43;54.18
9281;BME280;4679;47.966;7.958;2023-07-31T09:43:09;97065.41;;;22.45;54.07
9281;BME280;4679;47.966;7.958;2023-07-31T09:45:12;97074.41;;;22.67;53.79
9281;BME280;4679;47.966;7.958;2023-07-31T09:47:23;97068.63;;;22.94;53.15
9281;BME280;4679;47.966;7.958;2023-07-31T09:49:25;97066.69;;;23.03;52.96
9281;BME280;4679;47.966;7.958;2023-07-31T09:51:28;97061.38;;;22.69;53.55
9281;BME280;4679;47.966;7.958;2023-07-31T09:53:29;97062.56;;;22.42;54.24
9281;BME280;4679;47.966;7.958;2023-07-31T09:55:31;97048.06;;;22.46;54.11
9281;BME280;4679;47.966;7.958;2023-07-31T09:57:33;97054.84;;;22.61;53.63
9281;BME280;4679;47.966;7.958;2023-07-31T09:59:35;97050.75;;;22.55;53.49
9281;BME280;4679;47.966;7.958;2023-07-31T10:01:38;97058.66;;;22.77;53.20
9281;BME280;4679;47.966;7.958;2023-07-31T10:03:40;97064.81;;;22.95;52.63
9281;BME280;4679;47.966;7.958;2023-07-31T10:05:46;97060.66;;;22.98;52.61
9281;BME280;4679;47.966;7.958;2023-07-31T10:07:54;97053.00;;;23.00;52.48
9281;BME280;4679;47.966;7.958;2023-07-31T10:09:57;97044.28;;;22.94;52.49
9281;BME280;4679;47.966;7.958;2023-07-31T10:12:02;97041.69;;;23.06;52.04
9281;BME280;4679;47.966;7.958;2023-07-31T10:14:07;97043.03;;;23.21;51.94
9281;BME280;4679;47.966;7.958;2023-07-31T10:16:10;97040.22;;;23.38;51.73
9281;BME280;4679;47.966;7.958;2023-07-31T10:18:12;97030.53;;;23.67;51.22
9281;BME280;4679;47.966;7.958;2023-07-31T10:20:14;97029.38;;;23.89;50.80
9281;BME280;4679;47.966;7.958;2023-07-31T10:22:16;97015.88;;;24.01;50.66
9281;BME280;4679;47.966;7.958;2023-07-31T10:24:20;97009.22;;;23.98;50.77
9281;BME280;4679;47.966;7.958;2023-07-31T10:26:23;97010.66;;;23.54;51.41
9281;BME280;4679;47.966;7.958;2023-07-31T10:28:26;97012.53;;;23.62;51.04
9281;BME280;4679;47.966;7.958;2023-07-31T10:30:30;97007.44;;;23.61;51.10
9281;BME280;4679;47.966;7.958;2023-07-31T10:32:32;97009.03;;;23.62;51.07
9281;BME280;4679;47.966;7.958;2023-07-31T10:34:34;97014.00;;;23.80;50.77
9281;BME280;4679;47.966;7.958;2023-07-31T10:36:35;97012.38;;;24.00;50.39
9281;BME280;4679;47.966;7.958;2023-07-31T10:38:38;97009.47;;;24.05;50.24
9281;BME280;4679;47.966;7.958;2023-07-31T10:40:42;97008.06;;;23.99;50.39
9281;BME280;4679;47.966;7.958;2023-07-31T10:42:47;97004.47;;;23.95;50.39
9281;BME280;4679;47.966;7.958;2023-07-31T10:44:49;96997.19;;;24.20;50.10
9281;BME280;4679;47.966;7.958;2023-07-31T10:46:54;97002.13;;;24.39;49.63
9281;BME280;4679;47.966;7.958;2023-07-31T10:48:58;97004.88;;;24.63;49.37
9281;BME280;4679;47.966;7.958;2023-07-31T10:51:00;97009.75;;;24.58;49.08
9281;BME280;4679;47.966;7.958;2023-07-31T10:53:00;97007.72;;;24.67;48.94
9281;BME280;4679;47.966;7.958;2023-07-31T10:55:14;97006.34;;;24.48;49.38
9281;BME280;4679;47.966;7.958;2023-07-31T10:57:22;97000.13;;;24.48;49.33
9281;BME280;4679;47.966;7.958;2023-07-31T10:59:26;96996.59;;;24.47;49.44
9281;BME280;4679;47.966;7.958;2023-07-31T11:01:50;97000.56;;;24.50;49.29
9281;BME280;4679;47.966;7.958;2023-07-31T11:03:51;97004.09;;;24.63;49.21
9281;BME280;4679;47.966;7.958;2023-07-31T11:05:59;96994.16;;;24.54;49.23
9281;BME280;4679;47.966;7.958;2023-07-31T11:08:10;96989.94;;;24.45;49.29
9281;BME280;4679;47.966;7.958;2023-07-31T11:10:11;96981.44;;;24.34;49.75
9281;BME280;4679;47.966;7.958;2023-07-31T11:12:12;96988.09;;;24.25;49.85
9281;BME280;4679;47.966;7.958;2023-07-31T11:14:15;96990.69;;;24.00;50.22
9281;BME280;4679;47.966;7.958;2023-07-31T11:16:18;96990.84;;;24.16;49.95
9281;BME280;4679;47.966;7.958;2023-07-31T11:18:21;96987.53;;;24.31;49.67
9281;BME280;4679;47.966;7.958;2023-07-31T11:20:23;96982.34;;;24.05;49.98
9281;BME280;4679;47.966;7.958;2023-07-31T11:22:24;96988.66;;;23.97;50.17
9281;BME280;4679;47.966;7.958;2023-07-31T11:24:26;96988.72;;;23.89;50.19
9281;BME280;4679;47.966;7.958;2023-07-31T11:26:28;96995.47;;;23.82;50.34
9281;BME280;4679;47.966;7.958;2023-07-31T11:28:31;96989.66;;;23.72;50.52
9281;BME280;4679;47.966;7.958;2023-07-31T11:30:35;97001.16;;;23.69;50.58
9281;BME280;4679;47.966;7.958;2023-07-31T11:32:37;96989.13;;;23.58;50.79
9281;BME280;4679;47.966;7.958;2023-07-31T11:34:51;96981.34;;;23.56;50.57
9281;BME280;4679;47.966;7.958;2023-07-31T11:36:53;96972.97;;;23.40;51.06
9281;BME280;4679;47.966;7.958;2023-07-31T11:39:04;96979.19;;;23.41;50.98
9281;BME280;4679;47.966;7.958;2023-07-31T11:41:06;96983.28;;;23.26;51.25
9281;BME280;4679;47.966;7.958;2023-07-31T11:43:08;96982.69;;;23.21;50.96
9281;BME280;4679;47.966;7.958;2023-07-31T11:45:11;96975.88;;;23.14;51.16
9281;BME280;4679;47.966;7.958;2023-07-31T11:47:14;96973.63;;;23.17;51.13
9281;BME280;4679;47.966;7.958;2023-07-31T11:49:16;96975.31;;;23.00;51.10
9281;BME280;4679;47.966;7.958;2023-07-31T11:51:20;96981.06;;;22.99;51.22
9281;BME280;4679;47.966;7.958;2023-07-31T11:53:28;96971.31;;;23.06;50.95
9281;BME280;4679;47.966;7.958;2023-07-31T11:55:31;96965.50;;;23.17;50.75
9281;BME280;4679;47.966;7.958;2023-07-31T11:57:34;96956.13;;;23.14;50.74
9281;BME280;4679;47.966;7.958;2023-07-31T11:59:35;96962.19;;;23.11;51.12
9281;BME280;4679;47.966;7.958;2023-07-31T12:01:37;96962.31;;;23.14;50.85
9281;BME280;4679;47.966;7.958;2023-07-31T12:03:40;96962.06;;;23.28;50.78
9281;BME280;4679;47.966;7.958;2023-07-31T12:05:43;96948.28;;;23.42;50.54
9281;BME280;4679;47.966;7.958;2023-07-31T12:07:46;96940.69;;;23.56;50.05
9281;BME280;4679;47.966;7.958;2023-07-31T12:09:52;96942.50;;;23.52;50.02
9281;BME280;4679;47.966;7.958;2023-07-31T12:11:54;96932.81;;;23.42;50.22
9281;BME280;4679;47.966;7.958;2023-07-31T12:13:55;96920.66;;;24.02;49.26
9281;BME280;4679;47.966;7.958;2023-07-31T12:15:58;96905.16;;;24.24;48.93
9281;BME280;4679;47.966;7.958;2023-07-31T12:18:04;96907.31;;;24.54;48.47
9281;BME280;4679;47.966;7.958;2023-07-31T12:20:08;96903.34;;;24.88;48.23
9281;BME280;4679;47.966;7.958;2023-07-31T12:22:14;96909.25;;;25.03;47.65
9281;BME280;4679;47.966;7.958;2023-07-31T12:24:18;96910.78;;;25.28;47.38
9281;BME280;4679;47.966;7.958;2023-07-31T12:26:20;96905.63;;;25.51;47.09
9281;BME280;4679;47.966;7.958;2023-07-31T12:28:23;96904.03;;;25.50;47.32
9281;BME280;4679;47.966;7.958;2023-07-31T12:30:28;96900.50;;;25.62;46.71
9281;BME280;4679;47.966;7.958;2023-07-31T12:32:30;96896.00;;;25.41;47.39
9281;BME280;4679;47.966;7.958;2023-07-31T12:34:42;96897.75;;;25.21;47.46
9281;BME280;4679;47.966;7.958;2023-07-31T12:36:45;96896.78;;;25.14;47.24
9281;BME280;4679;47.966;7.958;2023-07-31T12:38:49;96893.28;;;25.01;47.91
9281;BME280;4679;47.966;7.958;2023-07-31T12:40:51;96899.50;;;24.89;47.79
9281;BME280;4679;47.966;7.958;2023-07-31T12:42:53;96893.84;;;24.82;48.01
9281;BME280;4679;47.966;7.958;2023-07-31T12:44:54;96904.84;;;24.74;48.09
9281;BME280;4679;47.966;7.958;2023-07-31T12:46:56;96890.31;;;25.06;47.53
9281;BME280;4679;47.966;7.958;2023-07-31T12:48:57;96886.81;;;25.46;47.08
9281;BME280;4679;47.966;7.958;2023-07-31T12:50:59;96879.13;;;25.76;46.03
9281;BME280;4679;47.966;7.958;2023-07-31T12:53:02;96870.78;;;25.69;46.70
9281;BME280;4679;47.966;7.958;2023-07-31T12:55:05;96875.00;;;25.54;46.65
9281;BME280;4679;47.966;7.958;2023-07-31T12:57:07;96872.41;;;25.30;47.36
9281;BME280;4679;47.966;7.958;2023-07-31T12:59:08;96881.13;;;25.23;47.06
9281;BME280;4679;47.966;7.958;2023-07-31T13:01:10;96881.00;;;25.32;47.34
9281;BME280;4679;47.966;7.958;2023-07-31T13:03:12;96875.44;;;25.68;46.45
9281;BME280;4679;47.966;7.958;2023-07-31T13:05:13;96882.44;;;25.97;45.62
9281;BME280;4679;47.966;7.958;2023-07-31T13:07:15;96872.72;;;26.12;45.76
9281;BME280;4679;47.966;7.958;2023-07-31T13:09:18;96876.66;;;26.30;45.68
9281;BME280;4679;47.966;7.958;2023-07-31T13:11:20;96869.13;;;26.39;45.67
9281;BME280;4679;47.966;7.958;2023-07-31T13:13:21;96870.28;;;26.38;45.86
9281;BME280;4679;47.966;7.958;2023-07-31T13:15:22;96869.47;;;26.38;45.89
9281;BME280;4679;47.966;7.958;2023-07-31T13:17:24;96867.59;;;26.73;45.15
9281;BME280;4679;47.966;7.958;2023-07-31T13:19:26;96859.25;;;26.66;45.28
9281;BME280;4679;47.966;7.958;2023-07-31T13:21:28;96856.22;;;26.52;45.47
9281;BME280;4679;47.966;7.958;2023-07-31T13:23:29;96849.16;;;26.67;45.23
9281;BME280;4679;47.966;7.958;2023-07-31T13:25:32;96854.06;;;26.77;45.04
9281;BME280;4679;47.966;7.958;2023-07-31T13:27:35;96850.06;;;26.55;45.14
9281;BME280;4679;47.966;7.958;2023-07-31T13:29:36;96848.06;;;26.36;45.54
9281;BME280;4679;47.966;7.958;2023-07-31T13:31:37;96846.66;;;26.26;46.01
9281;BME280;4679;47.966;7.958;2023-07-31T13:33:38;96845.34;;;26.36;45.60
9281;BME280;4679;47.966;7.958;2023-07-31T13:35:40;96845.88;;;26.42;44.79
9281;BME280;4679;47.966;7.958;2023-07-31T13:37:42;96843.50;;;26.40;45.04
9281;BME280;4679;47.966;7.958;2023-07-31T13:39:43;96846.72;;;26.61;44.92
9281;BME280;4679;47.966;7.958;2023-07-31T13:41:46;96831.53;;;26.45;45.18
9281;BME280;4679;47.966;7.958;2023-07-31T13:43:48;96823.94;;;26.35;45.39
9281;BME280;4679;47.966;7.958;2023-07-31T13:45:50;96829.44;;;26.22;45.59
9281;BME280;4679;47.966;7.958;2023-07-31T13:47:51;96846.31;;;26.12;45.75
9281;BME280;4679;47.966;7.958;2023-07-31T13:49:53;96819.50;;;25.99;45.74
9281;BME280;4679;47.966;7.958;2023-07-31T13:51:54;96823.13;;;26.03;45.22
9281;BME280;4679;47.966;7.958;2023-07-31T13:53:56;96819.53;;;26.30;44.82
9281;BME280;4679;47.966;7.958;2023-07-31T13:55:58;96819.53;;;26.30;44.51
9281;BME280;4679;47.966;7.958;2023-07-31T13:58:00;96801.72;;;26.33;44.92
9281;BME280;4679;47.966;7.958;2023-07-31T14:00:02;96819.25;;;26.51;44.81
9281;BME280;4679;47.966;7.958;2023-07-31T14:02:05;96820.59;;;26.41;44.46
9281;BME280;4679;47.966;7.958;2023-07-31T14:04:05;96813.84;;;26.35;44.27
9281;BME280;4679;47.966;7.958;2023-07-31T14:06:07;96804.28;;;26.10;45.01
9281;BME280;4679;47.966;7.958;2023-07-31T14:08:09;96803.28;;;26.18;44.95
9281;BME280;4679;47.966;7.958;2023-07-31T14:10:10;96800.41;;;26.26;44.87
9281;BME280;4679;47.966;7.958;2023-07-31T14:12:12;96800.91;;;26.48;44.47
9281;BME280;4679;47.966;7.958;2023-07-31T14:14:15;96805.28;;;26.52;44.50
9281;BME280;4679;47.966;7.958;2023-07-31T14:16:18;96812.59;;;26.33;44.27
9281;BME280;4679;47.966;7.958;2023-07-31T14:18:19;96816.38;;;26.12;44.93
9281;BME280;4679;47.966;7.958;2023-07-31T14:20:20;96809.25;;;25.92;45.24
9281;BME280;4679;47.966;7.958;2023-07-31T14:22:28;96805.41;;;25.77;44.93
9281;BME280;4679;47.966;7.958;2023-07-31T14:24:31;96794.03;;;25.59;45.05
9281;BME280;4679;47.966;7.958;2023-07-31T14:26:33;96807.13;;;25.42;45.35
9281;BME280;4679;47.966;7.958;2023-07-31T14:28:35;96793.09;;;25.40;45.77
9281;BME280;4679;47.966;7.958;2023-07-31T14:30:38;96795.81;;;25.40;45.27
9281;BME280;4679;47.966;7.958;2023-07-31T14:32:39;96795.13;;;25.43;45.21
9281;BME280;4679;47.966;7.958;2023-07-31T14:34:41;96795.94;;;25.43;44.87
9281;BME280;4679;47.966;7.958;2023-07-31T14:36:41;96792.06;;;25.44;45.12
9281;BME280;4679;47.966;7.958;2023-07-31T14:38:44;96788.78;;;25.51;44.67
9281;BME280;4679;47.966;7.958;2023-07-31T14:40:46;96791.16;;;25.68;44.47
9281;BME280;4679;47.966;7.958;2023-07-31T14:42:48;96790.66;;;25.78;44.06
9281;BME280;4679;47.966;7.958;2023-07-31T14:44:49;96778.31;;;25.81;44.55
9281;BME280;4679;47.966;7.958;2023-07-31T14:46:52;96791.50;;;25.67;44.79
9281;BME280;4679;47.966;7.958;2023-07-31T14:48:54;96786.50;;;25.69;44.22
9281;BME280;4679;47.966;7.958;2023-07-31T14:50:56;96773.72;;;25.69;44.23
9281;BME280;4679;47.966;7.958;2023-07-31T14:52:58;96778.22;;;25.77;44.08
9281;BME280;4679;47.966;7.958;2023-07-31T14:54:58;96778.91;;;25.74;44.49
9281;BME280;4679;47.966;7.958;2023-07-31T14:57:00;96782.03;;;25.61;44.56
9281;BME280;4679;47.966;7.958;2023-07-31T14:59:02;96794.78;;;25.72;44.43
9281;BME280;4679;47.966;7.958;2023-07-31T15:01:03;96778.56;;;25.76;43.99
9281;BME280;4679;47.966;7.958;2023-07-31T15:03:06;96776.72;;;25.80;43.91
9281;BME280;4679;47.966;7.958;2023-07-31T15:05:08;96768.91;;;25.94;43.78
9281;BME280;4679;47.966;7.958;2023-07-31T15:07:09;96772.31;;;26.07;43.59
9281;BME280;4679;47.966;7.958;2023-07-31T15:09:10;96764.69;;;26.12;43.38
9281;BME280;4679;47.966;7.958;2023-07-31T15:11:12;96760.19;;;26.20;43.67
9281;BME280;4679;47.966;7.958;2023-07-31T15:13:16;96772.94;;;26.00;43.52
9281;BME280;4679;47.966;7.958;2023-07-31T15:15:17;96764.16;;;26.07;43.96
9281;BME280;4679;47.966;7.958;2023-07-31T15:17:19;96761.56;;;25.95;43.89
9281;BME280;4679;47.966;7.958;2023-07-31T15:19:22;96761.22;;;25.80;43.88
9281;BME280;4679;47.966;7.958;2023-07-31T15:21:23;96767.38;;;25.49;44.34
9281;BME280;4679;47.966;7.958;2023-07-31T15:23:25;96756.63;;;25.25;44.45
9281;BME280;4679;47.966;7.958;2023-07-31T15:25:26;96750.66;;;25.19;44.80
9281;BME280;4679;47.966;7.958;2023-07-31T15:27:28;96755.25;;;25.31;44.43
9281;BME280;4679;47.966;7.958;2023-07-31T15:29:30;96751.75;;;25.31;44.20
9281;BME280;4679;47.966;7.958;2023-07-31T15:31:33;96744.91;;;25.37;43.94
9281;BME280;4679;47.966;7.958;2023-07-31T15:33:34;96746.22;;;25.43;43.84
9281;BME280;4679;47.966;7.958;2023-07-31T15:35:37;96737.03;;;25.47;43.92
9281;BME280;4679;47.966;7.958;2023-07-31T15:37:39;96748.69;;;25.48;44.06
9281;BME280;4679;47.966;7.958;2023-07-31T15:39:40;96746.91;;;25.40;44.17
9281;BME280;4679;47.966;7.958;2023-07-31T15:41:42;96742.63;;;25.39;44.34
9281;BME280;4679;47.966;7.958;2023-07-31T15:43:44;96737.50;;;25.49;44.32
9281;BME280;4679;47.966;7.958;2023-07-31T15:45:46;96733.97;;;25.49;44.36
9281;BME280;4679;47.966;7.958;2023-07-31T15:47:47;96727.91;;;25.55;44.54
9281;BME280;4679;47.966;7.958;2023-07-31T15:49:49;96717.94;;;25.59;44.30
9281;BME280;4679;47.966;7.958;2023-07-31T15:51:52;96719.31;;;25.53;44.45
9281;BME280;4679;47.966;7.958;2023-07-31T15:53:54;96714.50;;;25.47;44.64
9281;BME280;4679;47.966;7.958;2023-07-31T15:55:55;96723.47;;;25.47;44.29
9281;BME280;4679;47.966;7.958;2023-07-31T15:57:57;96728.09;;;25.47;44.66
9281;BME280;4679;47.966;7.958;2023-07-31T15:59:59;96718.72;;;25.44;44.62
9281;BME280;4679;47.966;7.958;2023-07-31T16:02:00;96740.63;;;25.36;45.06
9281;BME280;4679;47.966;7.958;2023-07-31T16:04:02;96728.22;;;25.22;45.15
9281;BME280;4679;47.966;7.958;2023-07-31T16:06:04;96729.63;;;25.16;44.73
9281;BME280;4679;47.966;7.958;2023-07-31T16:08:07;96739.00;;;25.19;45.15
9281;BME280;4679;47.966;7.958;2023-07-31T16:10:09;96732.78;;;25.18;45.07
9281;BME280;4679;47.966;7.958;2023-07-31T16:12:10;96739.03;;;25.07;45.26
9281;BME280;4679;47.966;7.958;2023-07-31T16:14:12;96733.91;;;24.89;45.07
9281;BME280;4679;47.966;7.958;2023-07-31T16:16:14;96737.25;;;24.71;45.40
9281;BME280;4679;47.966;7.958;2023-07-31T16:18:16;96736.38;;;24.54;45.52
9281;BME280;4679;47.966;7.958;2023-07-31T16:20:16;96739.13;;;24.42;45.65
9281;BME280;4679;47.966;7.958;2023-07-31T16:22:18;96747.28;;;24.30;45.84
9281;BME280;4679;47.966;7.958;2023-07-31T16:24:21;96740.94;;;24.14;46.08
9281;BME280;4679;47.966;7.958;2023-07-31T16:26:23;96741.06;;;24.05;46.14
9281;BME280;4679;47.966;7.958;2023-07-31T16:28:24;96739.16;;;23.94;46.04
9281;BME280;4679;47.966;7.958;2023-07-31T16:30:25;96734.06;;;23.92;46.43
9281;BME280;4679;47.966;7.958;2023-07-31T16:32:27;96731.22;;;24.01;46.27
9281;BME280;4679;47.966;7.958;2023-07-31T16:34:29;96721.16;;;24.01;46.39
9281;BME280;4679;47.966;7.958;2023-07-31T16:36:30;96708.97;;;24.07;46.28
9281;BME280;4679;47.966;7.958;2023-07-31T16:38:32;96704.56;;;24.03;46.46
9281;BME280;4679;47.966;7.958;2023-07-31T16:40:35;96712.38;;;24.04;46.57
9281;BME280;4679;47.966;7.958;2023-07-31T16:42:37;96714.88;;;23.97;46.63
9281;BME280;4679;47.966;7.958;2023-07-31T16:44:38;96700.88;;;23.95;46.84
9281;BME280;4679;47.966;7.958;2023-07-31T16:46:40;96698.25;;;23.87;46.95
9281;BME280;4679;47.966;7.958;2023-07-31T16:48:42;96697.47;;;23.86;47.17
9281;BME280;4679;47.966;7.958;2023-07-31T16:50:43;96698.59;;;23.85;47.18
9281;BME280;4679;47.966;7.958;2023-07-31T16:52:45;96694.66;;;23.82;47.31
9281;BME280;4679;47.966;7.958;2023-07-31T16:54:47;96680.31;;;23.82;47.45
9281;BME280;4679;47.966;7.958;2023-07-31T16:56:50;96685.97;;;23.77;47.42
9281;BME280;4679;47.966;7.958;2023-07-31T16:58:51;96680.09;;;23.75;47.52
9281;BME280;4679;47.966;7.958;2023-07-31T17:00:52;96674.56;;;23.71;47.53
9281;BME280;4679;47.966;7.958;2023-07-31T17:02:54;96680.22;;;23.66;47.79
9281;BME280;4679;47.966;7.958;2023-07-31T17:04:54;96669.72;;;23.65;47.70
9281;BME280;4679;47.966;7.958;2023-07-31T17:06:56;96668.59;;;23.66;47.36
9281;BME280;4679;47.966;7.958;2023-07-31T17:08:58;96659.22;;;23.63;47.65